createdAt,value
2018-04-10T00:01:19.828Z,14.10
2018-04-10T00:03:47.521Z,14.10
2018-04-10T00:06:15.195Z,14.10
2018-04-10T00:08:42.849Z,14.10
2018-04-10T00:11:10.502Z,14.10
2018-04-10T00:13:38.154Z,14.10
2018-04-10T00:16:05.820Z,14.00
2018-04-10T00:18:33.453Z,14.00
2018-04-10T00:21:01.080Z,14.00
2018-04-10T00:23:28.755Z,14.00
2018-04-10T00:25:56.368Z,14.00
2018-04-10T00:28:23.992Z,13.90
2018-04-10T00:30:51.653Z,13.90
2018-04-10T00:33:19.310Z,13.90
2018-04-10T00:35:46.948Z,13.90
2018-04-10T00:38:14.764Z,13.80
2018-04-10T00:40:42.398Z,13.80
2018-04-10T00:43:10.601Z,13.80
2018-04-10T00:45:38.272Z,13.80
2018-04-10T00:48:05.889Z,13.80
2018-04-10T00:50:33.505Z,13.80
2018-04-10T00:53:12.841Z,13.80
2018-04-10T00:55:40.649Z,13.90
2018-04-10T00:58:08.268Z,13.80
2018-04-10T01:00:35.949Z,13.90
2018-04-10T01:03:03.569Z,13.90
2018-04-10T01:05:31.200Z,13.90
2018-04-10T01:07:59.653Z,13.90
2018-04-10T01:10:27.289Z,13.90
2018-04-10T01:12:54.916Z,13.90
2018-04-10T01:15:22.745Z,13.90
2018-04-10T01:17:50.385Z,13.90
2018-04-10T01:20:18.037Z,13.90
2018-04-10T01:22:45.708Z,13.90
2018-04-10T01:25:13.333Z,13.90
2018-04-10T01:27:40.996Z,13.90
2018-04-10T01:30:09.413Z,13.90
2018-04-10T01:32:37.028Z,13.80
2018-04-10T01:35:04.650Z,13.90
2018-04-10T01:37:32.313Z,13.90
2018-04-10T01:39:59.929Z,13.80
2018-04-10T01:42:27.560Z,13.80
2018-04-10T01:44:55.328Z,13.80
2018-04-10T01:47:23.709Z,13.70
2018-04-10T01:49:52.096Z,13.60
2018-04-10T01:52:20.525Z,13.60
2018-04-10T01:54:48.148Z,13.50
2018-04-10T01:57:15.785Z,13.50
2018-04-10T01:59:43.451Z,13.40
2018-04-10T02:02:11.072Z,13.40
2018-04-10T02:04:38.692Z,13.40
2018-04-10T02:07:06.357Z,13.40
2018-04-10T02:09:33.984Z,13.30
2018-04-10T02:20:41.712Z,13.10
2018-04-10T02:23:11.065Z,13.00
2018-04-10T02:25:38.717Z,13.00
2018-04-10T02:28:06.342Z,12.90
2018-04-10T02:30:34.066Z,12.90
2018-04-10T02:33:01.690Z,12.80
2018-04-10T02:35:29.319Z,12.80
2018-04-10T02:37:56.982Z,12.70
2018-04-10T02:40:24.596Z,12.60
2018-04-10T02:42:52.213Z,12.60
2018-04-10T02:45:24.546Z,12.50
2018-04-10T02:47:52.109Z,12.50
2018-04-10T02:50:19.644Z,12.50
2018-04-10T02:52:47.997Z,12.30
2018-04-10T02:55:15.534Z,12.30
2018-04-10T02:57:43.072Z,12.20
2018-04-10T03:00:11.956Z,12.10
2018-04-10T03:02:39.504Z,12.10
2018-04-10T03:05:07.036Z,12.00
2018-04-10T03:07:34.609Z,12.00
2018-04-10T03:10:02.172Z,11.90
2018-04-10T03:12:30.468Z,11.90
2018-04-10T03:14:58.057Z,11.80
2018-04-10T03:17:25.651Z,11.80
2018-04-10T03:19:53.185Z,11.70
2018-04-10T03:22:20.755Z,11.70
2018-04-10T03:24:48.296Z,11.60
2018-04-10T03:27:15.824Z,11.60
2018-04-10T03:29:43.409Z,11.50
2018-04-10T03:32:11.283Z,11.50
2018-04-10T03:34:38.817Z,11.40
2018-04-10T03:37:06.394Z,11.40
2018-04-10T03:39:33.923Z,11.40
2018-04-10T03:42:01.466Z,11.40
2018-04-10T03:44:29.067Z,11.30
2018-04-10T03:46:56.616Z,11.30
2018-04-10T03:49:24.139Z,11.30
2018-04-10T03:51:52.472Z,11.20
2018-04-10T03:54:20.005Z,11.20
2018-04-10T03:56:47.544Z,11.20
2018-04-10T03:59:15.127Z,11.20
2018-04-10T04:01:43.438Z,11.10
2018-04-10T04:04:12.258Z,11.10
2018-04-10T04:06:39.848Z,11.00
2018-04-10T04:09:07.385Z,11.00
2018-04-10T04:11:34.916Z,11.00
2018-04-10T04:14:03.282Z,11.00
2018-04-10T04:16:42.573Z,11.00
2018-04-10T04:19:23.435Z,10.90
2018-04-10T04:22:06.626Z,10.90
2018-04-10T04:24:34.199Z,10.90
2018-04-10T04:27:01.724Z,10.90
2018-04-10T04:29:29.312Z,10.80
2018-04-10T04:31:57.762Z,10.70
2018-04-10T04:34:25.307Z,10.70
2018-04-10T04:36:52.846Z,10.70
2018-04-10T04:39:20.424Z,10.70
2018-04-10T04:41:47.991Z,10.60
2018-04-10T04:44:16.307Z,10.60
2018-04-10T04:46:43.905Z,10.60
2018-04-10T04:49:12.468Z,10.50
2018-04-10T04:51:40.028Z,10.50
2018-04-10T04:54:07.611Z,10.50
2018-04-10T04:56:35.145Z,10.50
2018-04-10T04:59:03.460Z,10.60
2018-04-10T05:01:31.068Z,10.50
2018-04-10T05:03:58.595Z,10.50
2018-04-10T05:06:26.901Z,10.40
2018-04-10T05:08:54.484Z,10.40
2018-04-10T05:11:22.022Z,10.40
2018-04-10T05:13:50.324Z,10.40
2018-04-10T05:16:17.899Z,10.40
2018-04-10T05:18:45.436Z,10.40
2018-04-10T05:21:12.966Z,10.40
2018-04-10T05:23:40.560Z,10.40
2018-04-10T05:26:08.095Z,10.50
2018-04-10T05:28:35.651Z,10.60
2018-04-10T05:31:03.237Z,10.70
2018-04-10T05:33:30.800Z,10.80
2018-04-10T05:35:58.336Z,10.80
2018-04-10T05:38:26.706Z,11.10
2018-04-10T05:40:54.248Z,11.10
2018-04-10T05:43:21.793Z,11.30
2018-04-10T05:45:49.373Z,11.50
2018-04-10T05:48:16.948Z,11.70
2018-04-10T05:50:44.475Z,12.00
2018-04-10T05:53:12.080Z,12.20
2018-04-10T05:55:39.616Z,12.20
2018-04-10T05:58:07.241Z,12.20
2018-04-10T06:00:34.830Z,12.20
2018-04-10T06:03:02.403Z,12.20
2018-04-10T06:05:29.920Z,12.20
2018-04-10T06:07:57.538Z,12.30
2018-04-10T06:10:25.081Z,12.50
2018-04-10T06:12:52.612Z,12.70
2018-04-10T06:15:20.224Z,12.90
2018-04-10T06:17:47.816Z,13.10
2018-04-10T06:20:15.353Z,13.20
2018-04-10T06:22:43.699Z,13.70
2018-04-10T06:25:12.040Z,13.60
2018-04-10T06:27:39.571Z,13.80
2018-04-10T06:30:07.140Z,13.90
2018-04-10T06:32:34.668Z,14.00
2018-04-10T06:35:02.232Z,14.20
2018-04-10T06:37:29.809Z,14.10
2018-04-10T06:39:57.345Z,14.30
2018-04-10T06:42:25.649Z,14.30
2018-04-10T06:44:53.253Z,14.20
2018-04-10T06:47:20.792Z,14.20
2018-04-10T06:49:48.330Z,14.20
2018-04-10T06:52:15.908Z,14.40
2018-04-10T06:54:43.434Z,14.60
2018-04-10T06:57:10.968Z,14.50
2018-04-10T06:59:39.313Z,14.30
2018-04-10T07:02:06.853Z,14.30
2018-04-10T07:04:34.388Z,14.20
2018-04-10T07:07:02.723Z,14.40
2018-04-10T07:09:30.280Z,14.30
2018-04-10T07:11:57.816Z,14.30
2018-04-10T07:14:26.168Z,14.10
2018-04-10T07:16:53.709Z,14.10
2018-04-10T07:19:21.246Z,14.20
2018-04-10T07:21:49.585Z,14.10
2018-04-10T07:24:17.144Z,14.10
2018-04-10T07:26:44.739Z,14.10
2018-04-10T07:29:13.295Z,14.10
2018-04-10T07:31:40.839Z,14.10
2018-04-10T07:34:08.388Z,14.10
2018-04-10T07:36:35.961Z,14.20
2018-04-10T07:39:03.495Z,14.30
2018-04-10T07:41:31.049Z,14.40
2018-04-10T07:43:58.628Z,14.20
2018-04-10T07:46:26.194Z,14.10
2018-04-10T07:48:53.728Z,14.00
2018-04-10T07:51:21.301Z,14.00
2018-04-10T07:53:48.853Z,13.90
2018-04-10T07:56:16.400Z,14.00
2018-04-10T07:58:43.972Z,14.00
2018-04-10T08:01:12.432Z,14.10
2018-04-10T08:03:40.733Z,14.60
2018-04-10T08:06:08.304Z,14.60
2018-04-10T08:08:35.861Z,14.80
2018-04-10T08:11:04.195Z,14.80
2018-04-10T08:13:31.770Z,14.80
2018-04-10T08:15:59.299Z,14.80
2018-04-10T08:18:27.607Z,15.00
2018-04-10T08:20:55.190Z,15.00
2018-04-10T08:23:22.712Z,15.20
2018-04-10T08:25:50.345Z,15.30
2018-04-10T08:28:18.023Z,15.30
2018-04-10T08:30:45.556Z,15.40
2018-04-10T08:33:13.091Z,15.50
2018-04-10T08:35:40.676Z,15.90
2018-04-10T08:38:08.979Z,16.10
2018-04-10T08:40:37.297Z,16.20
2018-04-10T08:43:04.873Z,16.10
2018-04-10T08:45:32.405Z,16.30
2018-04-10T08:48:00.720Z,16.30
2018-04-10T08:50:28.443Z,16.30
2018-04-10T08:52:55.955Z,16.20
2018-04-10T08:55:23.496Z,16.40
2018-04-10T08:57:51.078Z,16.70
2018-04-10T09:00:19.376Z,17.00
2018-04-10T09:02:46.909Z,17.00
2018-04-10T09:05:14.492Z,16.90
2018-04-10T09:07:42.744Z,17.00
2018-04-10T09:10:10.268Z,17.10
2018-04-10T09:12:37.853Z,17.20
2018-04-10T09:15:05.385Z,17.20
2018-04-10T09:17:32.920Z,17.10
2018-04-10T09:20:00.502Z,17.30
2018-04-10T09:22:28.069Z,17.50
2018-04-10T09:24:55.610Z,17.70
2018-04-10T09:27:23.172Z,17.80
2018-04-10T09:29:51.468Z,17.70
2018-04-10T09:32:19.008Z,17.70
2018-04-10T09:34:46.576Z,17.80
2018-04-10T09:37:14.109Z,17.70
2018-04-10T09:39:41.640Z,17.60
2018-04-10T09:42:10.060Z,17.70
2018-04-10T09:44:37.746Z,17.70
2018-04-10T09:47:05.309Z,17.80
2018-04-10T09:49:32.901Z,17.90
2018-04-10T09:52:00.450Z,17.80
2018-04-10T09:54:27.999Z,17.90
2018-04-10T09:56:55.682Z,18.10
2018-04-10T09:59:23.216Z,18.20
2018-04-10T10:01:50.752Z,18.30
2018-04-10T10:04:18.328Z,18.40
2018-04-10T10:06:45.866Z,18.50
2018-04-10T10:09:14.259Z,18.30
2018-04-10T10:11:41.832Z,18.20
2018-04-10T10:14:09.364Z,18.30
2018-04-10T10:16:36.896Z,18.30
2018-04-10T10:19:04.476Z,18.20
2018-04-10T10:21:32.025Z,18.20
2018-04-10T10:23:59.562Z,18.30
2018-04-10T10:26:27.913Z,18.00
2018-04-10T10:28:55.441Z,18.00
2018-04-10T10:31:22.976Z,18.00
2018-04-10T10:33:50.555Z,17.90
2018-04-10T10:36:18.869Z,17.80
2018-04-10T10:38:46.407Z,17.80
2018-04-10T10:41:14.760Z,17.70
2018-04-10T10:43:43.225Z,17.70
2018-04-10T10:46:10.757Z,17.80
2018-04-10T10:48:39.863Z,17.50
2018-04-10T10:51:07.397Z,17.50
2018-04-10T10:53:34.929Z,17.70
2018-04-10T10:56:02.617Z,17.60
2018-04-10T10:58:30.147Z,17.30
2018-04-10T11:00:57.683Z,17.10
2018-04-10T11:03:25.303Z,17.20
2018-04-10T11:05:53.601Z,16.50
2018-04-10T11:08:21.891Z,16.40
2018-04-10T11:10:50.234Z,16.20
2018-04-10T11:13:17.784Z,16.20
2018-04-10T11:15:45.320Z,16.40
2018-04-10T11:18:14.176Z,16.30
2018-04-10T11:20:41.700Z,16.30
2018-04-10T11:23:09.264Z,16.20
2018-04-10T11:25:37.610Z,16.20
2018-04-10T11:28:05.147Z,16.20
2018-04-10T11:30:32.676Z,16.20
2018-04-10T11:33:00.280Z,16.10
2018-04-10T11:35:27.816Z,15.90
2018-04-10T11:37:55.348Z,15.70
2018-04-10T11:40:22.949Z,15.60
2018-04-10T11:42:50.486Z,15.70
2018-04-10T11:45:18.019Z,15.60
2018-04-10T11:47:46.356Z,15.40
2018-04-10T11:50:13.903Z,15.40
2018-04-10T11:52:41.439Z,15.20
2018-04-10T11:55:09.026Z,15.10
2018-04-10T11:57:37.325Z,15.30
2018-04-10T12:00:04.855Z,15.30
2018-04-10T12:02:32.528Z,15.40
2018-04-10T12:05:00.056Z,15.40
2018-04-10T12:07:27.608Z,15.30
2018-04-10T12:09:55.176Z,15.00
2018-04-10T12:12:23.474Z,15.10
2018-04-10T12:14:51.010Z,15.00
2018-04-10T12:17:19.451Z,14.90
2018-04-10T12:19:46.980Z,14.90
2018-04-10T12:22:15.285Z,14.80
2018-04-10T12:24:44.440Z,14.80
2018-04-10T12:27:11.979Z,14.80
2018-04-10T12:29:39.509Z,14.80
2018-04-10T12:32:07.088Z,14.80
2018-04-10T12:34:35.392Z,14.60
2018-04-10T12:37:03.688Z,14.80
2018-04-10T12:39:31.273Z,14.70
2018-04-10T12:41:58.809Z,14.90
2018-04-10T12:44:27.116Z,14.80
2018-04-10T12:46:54.690Z,14.80
2018-04-10T12:49:22.256Z,14.70
2018-04-10T12:51:49.799Z,14.90
2018-04-10T12:54:17.400Z,14.90
2018-04-10T12:56:45.697Z,14.90
2018-04-10T12:59:13.901Z,14.80
2018-04-10T13:01:41.584Z,14.70
2018-04-10T13:04:09.116Z,14.50
2018-04-10T13:06:37.409Z,14.30
2018-04-10T13:09:05.868Z,14.30
2018-04-10T13:11:33.395Z,14.40
2018-04-10T13:14:00.994Z,14.40
2018-04-10T13:16:28.576Z,14.20
2018-04-10T13:18:56.104Z,14.20
2018-04-10T13:21:23.640Z,14.20
2018-04-10T13:23:52.172Z,13.80
2018-04-10T13:26:19.767Z,13.80
2018-04-10T13:28:47.296Z,13.50
2018-04-10T13:31:15.140Z,13.30
2018-04-10T13:33:42.824Z,13.10
2018-04-10T13:36:10.468Z,13.10
2018-04-10T13:38:38.043Z,13.20
2018-04-10T13:41:05.579Z,13.00
2018-04-10T13:43:33.112Z,13.20
2018-04-10T13:46:01.452Z,13.20
2018-04-10T13:48:29.020Z,13.20
2018-04-10T13:50:56.556Z,13.20
2018-04-10T13:53:24.914Z,13.20
2018-04-10T13:55:52.456Z,13.20
2018-04-10T13:58:20.003Z,13.10
2018-04-10T14:00:47.592Z,13.00
2018-04-10T14:03:15.256Z,12.80
2018-04-10T14:05:42.789Z,12.80
2018-04-10T14:08:11.141Z,12.50
2018-04-10T14:10:38.676Z,12.40
2018-04-10T14:13:06.212Z,12.30
2018-04-10T14:15:33.797Z,12.30
2018-04-10T14:18:02.145Z,12.20
2018-04-10T14:20:29.889Z,12.20
2018-04-10T14:22:57.666Z,12.00
2018-04-10T14:25:25.205Z,12.00
2018-04-10T14:27:52.738Z,11.90
2018-04-10T14:30:20.315Z,11.80
2018-04-10T14:32:47.846Z,11.70
2018-04-10T14:35:15.471Z,11.70
2018-04-10T14:37:43.091Z,11.80
2018-04-10T14:40:10.743Z,11.80
2018-04-10T14:42:39.077Z,11.90
2018-04-10T14:45:06.652Z,11.90
2018-04-10T14:47:34.243Z,11.80
2018-04-10T14:50:01.772Z,11.70
2018-04-10T14:52:29.501Z,11.80
2018-04-10T14:54:57.036Z,11.80
2018-04-10T14:57:24.591Z,11.90
2018-04-10T14:59:52.313Z,12.00
2018-04-10T15:02:19.840Z,12.10
2018-04-10T15:04:47.376Z,12.10
2018-04-10T15:07:15.946Z,12.00
2018-04-10T15:09:45.200Z,12.00
2018-04-10T15:12:12.965Z,12.00
2018-04-10T15:14:40.575Z,11.80
2018-04-10T15:17:08.169Z,11.60
2018-04-10T15:19:35.717Z,11.60
2018-04-10T15:22:03.312Z,11.60
2018-04-10T15:24:30.856Z,11.50
2018-04-10T15:26:58.380Z,11.40
2018-04-10T15:29:25.974Z,11.40
2018-04-10T15:31:53.509Z,11.20
2018-04-10T15:34:21.037Z,11.00
2018-04-10T15:36:48.630Z,10.90
2018-04-10T15:39:16.220Z,10.70
2018-04-10T15:41:44.681Z,10.60
2018-04-10T15:44:12.389Z,10.50
2018-04-10T15:46:39.932Z,10.50
2018-04-10T15:49:07.459Z,10.60
2018-04-10T15:51:35.811Z,10.90
2018-04-10T15:54:03.336Z,10.80
2018-04-10T15:56:30.906Z,10.90
2018-04-10T15:58:58.484Z,10.90
2018-04-10T16:01:26.070Z,10.70
2018-04-10T16:03:53.633Z,10.60
2018-04-10T16:06:21.199Z,10.50
2018-04-10T16:08:48.735Z,10.60
2018-04-10T16:11:17.085Z,10.60
2018-04-10T16:13:45.680Z,10.70
2018-04-10T16:16:13.212Z,10.70
2018-04-10T16:18:40.804Z,10.60
2018-04-10T16:21:09.035Z,10.50
2018-04-10T16:23:36.568Z,10.30
2018-04-10T16:26:04.099Z,10.30
2018-04-10T16:28:32.444Z,10.10
2018-04-10T16:30:59.988Z,10.10
2018-04-10T16:33:27.524Z,10.10
2018-04-10T16:35:55.869Z,9.80
2018-04-10T16:38:23.434Z,9.70
2018-04-10T16:40:50.968Z,9.60
2018-04-10T16:43:19.396Z,9.70
2018-04-10T16:45:46.923Z,9.60
2018-04-10T16:48:15.754Z,9.60
2018-04-10T16:50:43.326Z,9.60
2018-04-10T16:53:11.378Z,9.50
2018-04-10T16:55:38.912Z,9.30
2018-04-10T16:58:06.489Z,9.30
2018-04-10T17:00:34.148Z,9.20
2018-04-10T17:03:01.709Z,9.30
2018-04-10T17:05:29.296Z,9.10
2018-04-10T17:07:56.829Z,9.10
2018-04-10T17:10:24.356Z,9.10
2018-04-10T17:12:52.048Z,9.00
2018-04-10T17:15:20.389Z,9.00
2018-04-10T17:17:47.955Z,9.00
2018-04-10T17:20:15.529Z,9.00
2018-04-10T17:22:43.104Z,8.90
2018-04-10T17:25:10.625Z,9.00
2018-04-10T17:27:38.960Z,9.00
2018-04-10T17:30:06.494Z,8.90
2018-04-10T17:32:34.037Z,9.00
2018-04-10T17:35:01.607Z,8.90
2018-04-10T17:37:29.233Z,8.90
2018-04-10T17:39:56.759Z,8.80
2018-04-10T17:42:25.093Z,8.70
2018-04-10T17:44:52.632Z,8.70
2018-04-10T17:47:20.944Z,8.60
2018-04-10T17:49:48.520Z,8.60
2018-04-10T17:52:16.045Z,8.60
2018-04-10T17:54:44.336Z,8.40
2018-04-10T17:57:12.677Z,8.40
2018-04-10T17:59:40.208Z,8.40
2018-04-10T18:02:08.496Z,8.30
2018-04-10T18:04:36.940Z,8.20
2018-04-10T18:07:04.489Z,8.20
2018-04-10T18:09:32.025Z,8.20
2018-04-10T18:11:59.637Z,8.10
2018-04-10T18:14:27.171Z,8.00
2018-04-10T18:16:55.456Z,8.00
2018-04-10T18:19:23.799Z,7.90
2018-04-10T18:21:51.325Z,7.90
2018-04-10T18:24:18.870Z,7.80
2018-04-10T18:26:46.483Z,7.80
2018-04-10T18:29:14.149Z,7.70
2018-04-10T18:31:41.694Z,7.70
2018-04-10T18:34:09.321Z,7.80
2018-04-10T18:36:38.389Z,7.70
2018-04-10T18:39:06.682Z,7.70
2018-04-10T18:41:34.351Z,7.70
2018-04-10T18:44:01.868Z,7.70
2018-04-10T18:46:29.445Z,7.60
2018-04-10T18:48:57.054Z,7.60
2018-04-10T18:51:25.356Z,7.50
2018-04-10T18:53:52.880Z,7.50
2018-04-10T18:56:20.450Z,7.40
2018-04-10T18:58:47.990Z,7.40
2018-04-10T19:01:16.508Z,7.40
2018-04-10T19:03:44.084Z,7.40
2018-04-10T19:06:11.620Z,7.40
2018-04-10T19:08:39.147Z,7.40
2018-04-10T19:11:06.785Z,7.40
2018-04-10T19:13:34.365Z,7.40
2018-04-10T19:16:01.953Z,7.40
2018-04-10T19:18:31.135Z,7.30
2018-04-10T19:20:58.696Z,7.30
2018-04-10T19:23:26.220Z,7.40
2018-04-10T19:25:54.549Z,7.40
2018-04-10T19:28:22.076Z,7.40
2018-04-10T19:30:50.378Z,7.40
2018-04-10T19:33:18.707Z,7.40
2018-04-10T19:35:46.625Z,7.40
2018-04-10T19:38:14.952Z,7.40
2018-04-10T19:40:42.538Z,7.40
2018-04-10T19:43:10.071Z,7.40
2018-04-10T19:45:38.404Z,7.40
2018-04-10T19:48:05.990Z,7.40
2018-04-10T19:50:33.532Z,7.40
2018-04-10T19:53:01.060Z,7.40
2018-04-10T19:55:29.517Z,7.30
2018-04-10T19:57:57.060Z,7.30
2018-04-10T20:00:24.590Z,7.30
2018-04-10T20:02:52.180Z,7.30
2018-04-10T20:05:20.474Z,7.20
2018-04-10T20:07:48.792Z,7.20
2018-04-10T20:10:17.642Z,7.20
2018-04-10T20:12:45.188Z,7.20
2018-04-10T20:15:12.712Z,7.20
2018-04-10T20:17:41.053Z,7.10
2018-04-10T20:20:08.580Z,7.10
2018-04-10T20:22:36.165Z,7.00
2018-04-10T20:25:03.730Z,7.00
2018-04-10T20:27:31.280Z,7.00
2018-04-10T20:29:59.576Z,7.10
2018-04-10T20:32:27.163Z,7.10
2018-04-10T20:34:54.708Z,7.10
2018-04-10T20:37:23.006Z,7.20
2018-04-10T20:39:50.588Z,7.20
2018-04-10T20:42:18.120Z,7.20
2018-04-10T20:44:45.674Z,7.10
2018-04-10T20:47:13.237Z,7.10
2018-04-10T20:49:40.781Z,7.20
2018-04-10T20:52:08.312Z,7.20
2018-04-10T20:54:36.676Z,7.20
2018-04-10T20:57:04.257Z,7.20
2018-04-10T20:59:31.789Z,7.20
2018-04-10T21:01:59.365Z,7.20
2018-04-10T21:04:26.892Z,7.20
2018-04-10T21:06:55.183Z,7.30
2018-04-10T21:09:23.563Z,7.30
2018-04-10T21:11:51.852Z,7.40
2018-04-10T21:14:20.150Z,7.40
2018-04-10T21:16:48.528Z,7.40
2018-04-10T21:19:16.034Z,7.40
2018-04-10T21:21:43.563Z,7.30
2018-04-10T21:24:11.156Z,7.40
2018-04-10T21:26:39.453Z,7.40
2018-04-10T21:29:06.987Z,7.30
2018-04-10T21:31:34.556Z,7.30
2018-04-10T21:34:02.097Z,7.30
2018-04-10T21:36:29.623Z,7.30
2018-04-10T21:38:57.963Z,7.30
2018-04-10T21:41:25.487Z,7.30
2018-04-10T21:43:53.828Z,7.30
2018-04-10T21:46:21.386Z,7.30
2018-04-10T21:48:48.913Z,7.30
2018-04-10T21:51:18.023Z,7.30
2018-04-10T21:53:47.288Z,7.30
2018-04-10T21:56:14.813Z,7.30
2018-04-10T21:58:42.403Z,7.30
2018-04-10T22:01:10.088Z,7.30
2018-04-10T22:03:37.853Z,7.20
2018-04-10T22:06:05.407Z,7.20
2018-04-10T22:08:33.956Z,7.20
2018-04-10T22:11:01.518Z,7.20
2018-04-10T22:13:29.048Z,7.20
2018-04-10T22:15:56.640Z,7.10
2018-04-10T22:18:24.159Z,7.10
2018-04-10T22:20:51.882Z,7.10
2018-04-10T22:23:19.451Z,7.10
2018-04-10T22:25:48.395Z,7.00
2018-04-10T22:28:15.945Z,7.00
2018-04-10T22:30:43.504Z,7.00
2018-04-10T22:33:11.013Z,6.90
2018-04-10T22:35:38.557Z,7.00
2018-04-10T22:38:06.299Z,6.90
2018-04-10T22:40:33.825Z,6.90
2018-04-10T22:43:02.125Z,6.90
2018-04-10T22:45:29.692Z,6.90
2018-04-10T22:47:57.219Z,6.90
2018-04-10T22:50:24.750Z,6.90
2018-04-10T22:52:52.420Z,6.80
2018-04-10T22:55:19.952Z,6.80
2018-04-10T22:57:47.611Z,6.80
2018-04-10T23:00:15.197Z,6.80
2018-04-10T23:02:42.733Z,6.80
2018-04-10T23:05:10.268Z,6.80
2018-04-10T23:07:37.941Z,7.00
2018-04-10T23:10:05.483Z,6.80
2018-04-10T23:12:33.016Z,6.80
2018-04-10T23:15:00.597Z,6.80
2018-04-10T23:17:28.133Z,6.80
2018-04-10T23:19:56.453Z,6.70
2018-04-10T23:22:24.033Z,6.80
2018-04-10T23:24:51.560Z,6.70
2018-04-10T23:27:19.871Z,6.70
2018-04-10T23:29:48.605Z,6.70
2018-04-10T23:32:16.132Z,6.70
2018-04-10T23:34:44.437Z,6.70
2018-04-10T23:37:12.041Z,6.70
2018-04-10T23:39:39.564Z,6.70
2018-04-10T23:42:07.869Z,6.70
2018-04-10T23:44:35.456Z,6.60
2018-04-10T23:47:03.043Z,6.70
2018-04-10T23:49:30.572Z,6.70
2018-04-10T23:51:58.936Z,6.70
2018-04-10T23:54:26.458Z,6.60
2018-04-10T23:56:53.996Z,6.60
2018-04-10T23:59:22.337Z,6.60
